Chicago Park, California
Current Conditions -  °F | °C
As of 1:00 PM on Thursday 23 Oct 2014 (Local Time) from KGOO Reporting Station
Scattered Clouds Scattered Clouds  
Wind Chill: 59°   Ceiling: Unl
Heat Index: 59°   Visibility: 3mi
Dew Point: 39°   Wind: 5mph
Humidity: 48%   Direction: 300°WNW
Pressure: 30.13"   Gusts: NA
Location:  39.15°N, 120.97°W
Report Text: KGOO 232000Z AUTO 30004KT 3SM FEW070 SCT110 15/04 A3013 RMK AO1
Loading
Personal Weather Stations






























Interactive Weather Map
Tropical Storm Tracking
New forecast layout! Learn more

10-Day Weather Forecast

Advertisements
Track Severe Weather on mobile